createdAt,value
2023-04-07T00:02:16.760Z,10.45
2023-04-07T00:05:20.103Z,12.20
2023-04-07T00:08:22.965Z,11.35
2023-04-07T00:11:26.488Z,11.38
2023-04-07T00:14:30.179Z,10.63
2023-04-07T00:17:33.399Z,11.18
2023-04-07T00:20:36.838Z,8.23
2023-04-07T00:23:39.774Z,10.23
2023-04-07T00:26:42.739Z,10.73
2023-04-07T00:29:46.965Z,10.00
2023-04-07T00:32:51.567Z,10.15
2023-04-07T00:35:54.873Z,10.38
2023-04-07T00:38:57.886Z,10.43
2023-04-07T00:42:01.569Z,10.63
2023-04-07T00:45:04.932Z,10.73
2023-04-07T00:48:08.291Z,10.15
2023-04-07T00:51:11.577Z,10.80
2023-04-07T00:54:15.534Z,11.02
2023-04-07T00:57:18.497Z,9.88
2023-04-07T01:00:23.317Z,10.57
2023-04-07T01:03:34.234Z,11.07
2023-04-07T01:06:40.775Z,9.55
2023-04-07T01:09:51.809Z,10.82
2023-04-07T01:13:08.738Z,10.52
2023-04-07T01:16:14.129Z,9.88
2023-04-07T01:19:30.761Z,9.65
2023-04-07T01:22:43.371Z,11.12
2023-04-07T01:26:10.053Z,9.82
2023-04-07T01:29:25.394Z,11.98
2023-04-07T01:32:30.223Z,11.90
2023-04-07T01:35:35.475Z,11.50
2023-04-07T01:38:39.164Z,11.25
2023-04-07T01:41:42.391Z,10.75
2023-04-07T01:44:46.992Z,11.52
2023-04-07T01:47:50.491Z,11.32
2023-04-07T01:50:55.420Z,12.02
2023-04-07T01:54:00.980Z,11.03
2023-04-07T01:57:04.358Z,11.85
2023-04-07T02:00:08.777Z,11.50
2023-04-07T02:03:24.669Z,11.10
2023-04-07T02:06:33.843Z,10.65
2023-04-07T02:09:39.275Z,11.07
2023-04-07T02:15:46.022Z,11.00
2023-04-07T02:18:49.608Z,11.20
2023-04-07T02:21:53.099Z,11.10
2023-04-07T02:24:57.617Z,11.48
2023-04-07T02:28:03.301Z,11.60
2023-04-07T02:31:06.254Z,11.80
2023-04-07T02:34:10.180Z,11.18
2023-04-07T02:37:15.516Z,10.95
2023-04-07T02:40:18.779Z,10.88
2023-04-07T02:43:21.792Z,11.10
2023-04-07T02:46:27.393Z,11.68
2023-04-07T02:49:30.329Z,10.60
2023-04-07T02:52:33.592Z,10.85
2023-04-07T02:55:37.611Z,11.35
2023-04-07T02:58:41.109Z,10.98
2023-04-07T03:01:44.331Z,9.95
2023-04-07T03:04:48.356Z,12.25
2023-04-07T03:07:52.180Z,10.73
2023-04-07T03:10:55.579Z,10.38
2023-04-07T03:14:00.035Z,10.63
2023-04-07T03:17:04.645Z,9.82
2023-04-07T03:20:08.605Z,11.20
2023-04-07T03:23:13.800Z,10.77
2023-04-07T03:26:18.739Z,9.32
2023-04-07T03:29:22.094Z,9.93
2023-04-07T03:32:27.565Z,10.38
2023-04-07T03:35:32.410Z,9.73
2023-04-07T03:38:35.677Z,10.15
2023-04-07T03:41:39.155Z,10.43
2023-04-07T03:44:42.737Z,10.88
2023-04-07T03:47:46.504Z,10.50
2023-04-07T03:50:49.653Z,10.90
2023-04-07T03:53:53.533Z,11.12
2023-04-07T03:57:00.004Z,10.30
2023-04-07T04:00:04.022Z,11.45
2023-04-07T04:03:19.196Z,12.30
2023-04-07T04:06:23.485Z,11.13
2023-04-07T04:09:26.998Z,11.52
2023-04-07T04:12:30.341Z,12.32
2023-04-07T04:15:34.644Z,13.20
2023-04-07T04:18:39.205Z,12.93
2023-04-07T04:21:42.455Z,13.60
2023-04-07T04:24:46.278Z,12.98
2023-04-07T04:27:49.696Z,13.13
2023-04-07T04:30:53.219Z,14.35
2023-04-07T04:33:56.357Z,13.93
2023-04-07T04:37:00.175Z,13.38
2023-04-07T04:40:04.277Z,14.00
2023-04-07T04:43:09.740Z,14.85
2023-04-07T04:46:14.334Z,14.63
2023-04-07T04:49:19.906Z,14.02
2023-04-07T04:52:23.143Z,13.80
2023-04-07T04:55:27.513Z,13.68
2023-04-07T04:58:32.491Z,13.50
2023-04-07T05:01:35.758Z,14.10
2023-04-07T05:04:39.061Z,13.98
2023-04-07T05:07:43.318Z,14.60
2023-04-07T05:10:47.777Z,14.25
2023-04-07T05:13:52.602Z,14.13
2023-04-07T05:16:55.757Z,14.38
2023-04-07T05:19:59.340Z,14.85
2023-04-07T05:23:03.235Z,12.10
2023-04-07T05:26:07.105Z,14.25
2023-04-07T05:29:12.457Z,15.05
2023-04-07T05:32:15.768Z,15.40
2023-04-07T05:35:19.015Z,14.98
2023-04-07T05:38:24.596Z,14.77
2023-04-07T05:41:29.891Z,16.17
2023-04-07T05:44:33.514Z,15.45
2023-04-07T05:47:36.691Z,15.48
2023-04-07T05:50:41.763Z,13.73
2023-04-07T05:53:44.846Z,13.90
2023-04-07T05:56:49.000Z,13.02
2023-04-07T05:59:52.530Z,12.73
2023-04-07T06:02:56.347Z,13.20
2023-04-07T06:06:00.919Z,13.50
2023-04-07T06:09:04.595Z,13.20
2023-04-07T06:12:09.437Z,13.50
2023-04-07T06:15:12.629Z,14.82
2023-04-07T06:18:15.986Z,12.18
2023-04-07T06:21:18.927Z,14.65
2023-04-07T06:24:25.461Z,13.25
2023-04-07T06:27:28.491Z,14.35
2023-04-07T06:30:32.178Z,14.45
2023-04-07T06:33:35.511Z,16.73
2023-04-07T06:36:38.769Z,12.37
2023-04-07T06:39:41.788Z,13.57
2023-04-07T06:42:46.274Z,12.63
2023-04-07T06:45:52.447Z,13.00
2023-04-07T06:48:55.684Z,11.07
2023-04-07T06:51:59.462Z,12.57
2023-04-07T06:55:02.813Z,12.18
2023-04-07T06:58:05.940Z,11.48
2023-04-07T07:01:09.443Z,11.63
2023-04-07T07:04:12.536Z,11.38
2023-04-07T07:07:16.111Z,12.23
2023-04-07T07:10:20.726Z,12.55
2023-04-07T07:13:26.645Z,11.35
2023-04-07T07:16:29.490Z,11.40
2023-04-07T07:19:32.693Z,10.98
2023-04-07T07:22:35.984Z,11.88
2023-04-07T07:25:39.356Z,11.20
2023-04-07T07:28:42.314Z,11.10
2023-04-07T07:31:45.986Z,11.23
2023-04-07T07:34:48.851Z,11.77
2023-04-07T07:37:53.020Z,11.55
2023-04-07T07:40:56.092Z,11.95
2023-04-07T07:43:59.302Z,11.65
2023-04-07T07:47:02.263Z,12.02
2023-04-07T07:50:05.954Z,10.25
2023-04-07T07:53:08.912Z,11.95
2023-04-07T07:56:12.124Z,11.63
2023-04-07T07:59:16.638Z,12.00
2023-04-07T08:02:20.975Z,11.48
2023-04-07T08:05:24.391Z,12.10
2023-04-07T08:08:27.268Z,11.82
2023-04-07T08:11:30.423Z,10.38
2023-04-07T08:14:33.924Z,12.57
2023-04-07T08:17:37.182Z,11.60
2023-04-07T08:20:40.924Z,11.07
2023-04-07T08:23:44.176Z,11.90
2023-04-07T08:26:47.276Z,11.93
2023-04-07T08:30:00.609Z,11.82
2023-04-07T08:33:04.335Z,12.93
2023-04-07T08:36:07.912Z,11.82
2023-04-07T08:39:10.966Z,11.95
2023-04-07T08:42:14.444Z,11.15
2023-04-07T08:45:19.424Z,10.52
2023-04-07T08:48:27.272Z,11.35
2023-04-07T08:51:33.307Z,11.88
2023-04-07T08:54:36.903Z,12.13
2023-04-07T08:57:40.258Z,12.07
2023-04-07T09:00:49.801Z,11.65
2023-04-07T09:03:52.997Z,12.10
2023-04-07T09:06:57.412Z,9.35
2023-04-07T09:10:01.738Z,12.50
2023-04-07T09:13:04.986Z,12.37
2023-04-07T09:16:08.157Z,13.13
2023-04-07T09:19:11.517Z,13.35
2023-04-07T09:22:14.951Z,13.98
2023-04-07T09:25:20.037Z,12.13
2023-04-07T09:28:23.120Z,12.32
2023-04-07T09:31:50.350Z,12.80
2023-04-07T09:34:59.306Z,12.25
2023-04-07T09:38:07.732Z,12.23
2023-04-07T09:41:11.683Z,10.77
2023-04-07T09:44:15.058Z,13.35
2023-04-07T09:47:18.153Z,12.80
2023-04-07T09:50:35.441Z,12.55
2023-04-07T09:53:50.103Z,13.05
2023-04-07T09:56:53.762Z,12.35
2023-04-07T09:59:57.306Z,11.00
2023-04-07T10:03:00.942Z,12.15
2023-04-07T10:06:06.501Z,12.63
2023-04-07T10:09:10.654Z,12.52
2023-04-07T10:12:14.673Z,10.77
2023-04-07T10:15:17.727Z,10.35
2023-04-07T10:18:21.637Z,11.27
2023-04-07T10:21:26.037Z,11.95
2023-04-07T10:24:47.548Z,11.05
2023-04-07T10:27:54.002Z,8.32
2023-04-07T10:30:58.305Z,12.37
2023-04-07T10:34:02.855Z,12.48
2023-04-07T10:37:13.829Z,13.07
2023-04-07T10:40:19.577Z,11.30
2023-04-07T10:43:44.332Z,11.40
2023-04-07T10:46:48.838Z,10.55
2023-04-07T10:50:20.612Z,11.70
2023-04-07T10:53:24.348Z,11.52
2023-04-07T10:56:28.144Z,12.00
2023-04-07T10:59:32.295Z,11.95
2023-04-07T11:02:36.044Z,13.07
2023-04-07T11:05:42.514Z,11.38
2023-04-07T11:08:49.322Z,10.45
2023-04-07T11:11:53.616Z,11.35
2023-04-07T11:14:57.483Z,12.13
2023-04-07T11:18:23.478Z,12.25
2023-04-07T11:21:26.628Z,13.10
2023-04-07T11:24:39.446Z,11.82
2023-04-07T11:27:44.883Z,12.35
2023-04-07T11:34:00.032Z,9.73
2023-04-07T11:37:26.304Z,11.18
2023-04-07T11:43:45.406Z,11.23
2023-04-07T11:46:59.986Z,12.90
2023-04-07T11:50:03.052Z,11.23
2023-04-07T11:53:06.280Z,11.20
2023-04-07T11:56:16.576Z,11.52
2023-04-07T11:59:25.022Z,11.38
2023-04-07T12:02:34.604Z,11.90
2023-04-07T12:05:45.183Z,11.02
2023-04-07T12:08:48.204Z,11.52
2023-04-07T12:11:51.573Z,10.57
2023-04-07T12:14:54.987Z,11.90
2023-04-07T12:17:58.180Z,11.12
2023-04-07T12:21:01.642Z,11.50
2023-04-07T12:24:04.929Z,10.07
2023-04-07T12:27:07.949Z,11.32
2023-04-07T12:30:13.225Z,11.43
2023-04-07T12:33:16.991Z,11.07
2023-04-07T12:36:20.257Z,11.43
2023-04-07T12:39:23.626Z,10.57
2023-04-07T12:42:27.348Z,12.18
2023-04-07T12:45:31.372Z,12.20
2023-04-07T12:48:34.824Z,12.07
2023-04-07T12:51:40.115Z,11.52
2023-04-07T12:54:45.093Z,11.80
2023-04-07T12:57:48.475Z,11.88
2023-04-07T13:00:52.383Z,12.45
2023-04-07T13:03:56.271Z,12.05
2023-04-07T13:07:01.075Z,12.05
2023-04-07T13:10:06.242Z,11.55
2023-04-07T13:13:09.376Z,11.98
2023-04-07T13:16:12.433Z,11.40
2023-04-07T13:19:16.205Z,12.18
2023-04-07T13:22:22.140Z,12.15
2023-04-07T13:25:27.543Z,11.10
2023-04-07T13:28:30.554Z,11.80
2023-04-07T13:31:33.769Z,12.50
2023-04-07T13:34:38.276Z,11.07
2023-04-07T13:37:41.499Z,12.05
2023-04-07T13:40:45.374Z,11.48
2023-04-07T13:43:49.145Z,11.12
2023-04-07T13:46:52.779Z,11.45
2023-04-07T13:49:56.178Z,10.93
2023-04-07T13:52:59.069Z,12.23
2023-04-07T13:56:03.684Z,9.25
2023-04-07T13:59:07.818Z,10.98
2023-04-07T14:02:11.533Z,12.67
2023-04-07T14:05:14.731Z,11.12
2023-04-07T14:08:19.163Z,10.77
2023-04-07T14:11:22.800Z,11.02
2023-04-07T14:14:25.743Z,10.15
2023-04-07T14:17:29.047Z,10.95
2023-04-07T14:20:32.107Z,11.38
2023-04-07T14:23:37.633Z,12.05
2023-04-07T14:26:40.797Z,11.48
2023-04-07T14:29:44.003Z,10.80
2023-04-07T14:32:47.078Z,12.10
2023-04-07T14:35:50.345Z,10.48
2023-04-07T14:38:54.342Z,12.37
2023-04-07T14:41:57.606Z,10.20
2023-04-07T14:45:00.645Z,11.70
2023-04-07T14:48:04.010Z,11.68
2023-04-07T14:51:12.983Z,11.55
2023-04-07T14:54:16.172Z,11.25
2023-04-07T14:57:19.786Z,10.88
2023-04-07T15:00:25.434Z,11.18
2023-04-07T15:06:34.064Z,10.95
2023-04-07T15:09:36.904Z,11.33
2023-04-07T15:12:40.981Z,12.20
2023-04-07T15:15:43.860Z,10.70
2023-04-07T15:18:48.388Z,12.00
2023-04-07T15:21:51.284Z,11.30
2023-04-07T15:24:54.429Z,10.93
2023-04-07T15:27:57.395Z,12.68
2023-04-07T15:31:01.399Z,13.38
2023-04-07T15:34:04.542Z,12.20
2023-04-07T15:37:08.597Z,12.48
2023-04-07T15:40:11.897Z,11.93
2023-04-07T15:43:15.079Z,12.05
2023-04-07T15:46:17.943Z,12.55
2023-04-07T15:49:24.311Z,12.23
2023-04-07T15:52:29.247Z,12.00
2023-04-07T15:55:34.939Z,11.75
2023-04-07T16:01:42.458Z,11.20
2023-04-07T16:04:47.615Z,11.60
2023-04-07T16:10:54.671Z,11.63
2023-04-07T16:13:57.610Z,12.30
2023-04-07T16:17:00.980Z,12.30
2023-04-07T16:20:04.737Z,11.40
2023-04-07T16:23:08.082Z,11.45
2023-04-07T16:26:11.187Z,11.40
2023-04-07T16:29:14.384Z,12.32
2023-04-07T16:32:17.277Z,13.52
2023-04-07T16:35:20.654Z,13.40
2023-04-07T16:38:24.242Z,15.95
2023-04-07T16:41:27.603Z,14.30
2023-04-07T16:44:32.724Z,17.98
2023-04-07T16:47:36.908Z,22.83
2023-04-07T16:50:44.206Z,23.65
2023-04-07T16:53:48.155Z,17.58
2023-04-07T16:56:51.992Z,21.83
2023-04-07T16:59:55.339Z,21.15
2023-04-07T17:02:58.377Z,19.75
2023-04-07T17:06:05.644Z,18.35
2023-04-07T17:09:08.594Z,16.92
2023-04-07T17:12:13.079Z,17.92
2023-04-07T17:15:16.204Z,18.55
2023-04-07T17:18:20.846Z,20.77
2023-04-07T17:21:23.713Z,18.95
2023-04-07T17:24:26.881Z,22.10
2023-04-07T17:27:29.866Z,20.95
2023-04-07T17:30:33.238Z,22.75
2023-04-07T17:33:36.239Z,22.77
2023-04-07T17:36:39.450Z,22.25
2023-04-07T17:39:42.535Z,24.02
2023-04-07T17:42:45.985Z,23.35
2023-04-07T17:45:48.915Z,24.27
2023-04-07T17:48:52.401Z,21.05
2023-04-07T17:51:56.654Z,18.80
2023-04-07T17:55:01.173Z,20.80
2023-04-07T17:58:04.049Z,18.73
2023-04-07T18:01:12.572Z,21.65
2023-04-07T18:04:17.915Z,17.45
2023-04-07T18:07:21.379Z,22.05
2023-04-07T18:10:26.111Z,19.97
2023-04-07T18:13:30.480Z,19.50
2023-04-07T18:16:34.279Z,22.70
2023-04-07T18:19:37.584Z,29.95
2023-04-07T18:22:41.047Z,27.87
2023-04-07T18:25:44.061Z,30.25
2023-04-07T18:28:47.369Z,22.58
2023-04-07T18:31:50.608Z,20.75
2023-04-07T18:34:54.961Z,25.67
2023-04-07T18:37:59.216Z,24.20
2023-04-07T18:41:02.618Z,19.47
2023-04-07T18:44:05.652Z,18.95
2023-04-07T18:47:08.891Z,16.92
2023-04-07T18:50:12.191Z,21.02
2023-04-07T18:53:17.100Z,17.40
2023-04-07T18:56:22.742Z,17.97
2023-04-07T18:59:29.239Z,19.08
2023-04-07T19:02:32.229Z,18.83
2023-04-07T19:05:37.545Z,18.48
2023-04-07T19:08:41.141Z,18.60
2023-04-07T19:11:44.964Z,19.60
2023-04-07T19:14:48.045Z,25.52
2023-04-07T19:17:52.861Z,20.98
2023-04-07T19:20:56.143Z,22.33
2023-04-07T19:23:59.940Z,19.73
2023-04-07T19:27:03.393Z,21.25
2023-04-07T19:30:07.563Z,22.33
2023-04-07T19:33:11.925Z,20.25
2023-04-07T19:36:15.517Z,20.97
2023-04-07T19:39:18.696Z,31.60
2023-04-07T19:42:22.051Z,24.80
2023-04-07T19:45:25.734Z,18.48
2023-04-07T19:48:29.836Z,22.02
2023-04-07T19:51:33.251Z,23.10
2023-04-07T19:54:37.009Z,20.15
2023-04-07T19:57:43.284Z,19.33
2023-04-07T20:00:49.819Z,19.45
2023-04-07T20:03:53.181Z,19.80
2023-04-07T20:06:56.239Z,21.00
2023-04-07T20:10:00.155Z,19.00
2023-04-07T20:13:04.565Z,17.98
2023-04-07T20:16:09.196Z,17.77
2023-04-07T20:19:12.291Z,18.05
2023-04-07T20:22:15.848Z,19.40
2023-04-07T20:25:18.939Z,19.92
2023-04-07T20:28:22.446Z,19.20
2023-04-07T20:31:25.643Z,17.25
2023-04-07T20:34:29.276Z,19.00
2023-04-07T20:37:32.223Z,18.30
2023-04-07T20:40:37.053Z,18.25
2023-04-07T20:43:40.172Z,18.30
2023-04-07T20:46:44.403Z,20.12
2023-04-07T20:49:47.384Z,21.10
2023-04-07T20:52:50.636Z,20.40
2023-04-07T20:55:53.674Z,19.80
2023-04-07T20:58:56.847Z,18.42
2023-04-07T21:01:59.975Z,17.52
2023-04-07T21:05:04.216Z,18.48
2023-04-07T21:08:08.578Z,18.85
2023-04-07T21:11:11.756Z,18.05
2023-04-07T21:14:14.710Z,17.77
2023-04-07T21:17:18.023Z,18.42
2023-04-07T21:20:20.876Z,19.65
2023-04-07T21:23:24.087Z,19.95
2023-04-07T21:26:27.389Z,21.98
2023-04-07T21:29:33.263Z,19.77
2023-04-07T21:32:36.773Z,18.98
2023-04-07T21:35:40.572Z,17.95
2023-04-07T21:38:43.661Z,18.80
2023-04-07T21:41:46.736Z,18.75
2023-04-07T21:44:50.067Z,19.05
2023-04-07T21:47:53.320Z,19.67
2023-04-07T21:50:56.700Z,18.77
2023-04-07T21:53:59.885Z,20.10
2023-04-07T21:57:02.839Z,17.77
2023-04-07T22:00:07.472Z,19.73
2023-04-07T22:03:17.548Z,16.50
2023-04-07T22:06:20.943Z,15.25
2023-04-07T22:09:24.334Z,17.83
2023-04-07T22:12:27.792Z,17.37
2023-04-07T22:15:30.869Z,14.43
2023-04-07T22:18:34.039Z,15.45
2023-04-07T22:21:36.933Z,16.58
2023-04-07T22:24:40.379Z,14.45
2023-04-07T22:27:43.331Z,14.85
2023-04-07T22:30:46.563Z,13.55
2023-04-07T22:33:49.796Z,13.43
2023-04-07T22:36:54.368Z,14.00
2023-04-07T22:39:57.235Z,12.95
2023-04-07T22:43:02.280Z,13.90
2023-04-07T22:46:05.280Z,13.98
2023-04-07T22:49:08.566Z,13.40
2023-04-07T22:52:11.479Z,12.68
2023-04-07T22:55:14.737Z,12.02
2023-04-07T22:58:17.747Z,11.38
2023-04-07T23:01:21.137Z,11.35
2023-04-07T23:04:24.894Z,11.95
2023-04-07T23:07:28.066Z,11.57
2023-04-07T23:10:32.221Z,10.85
2023-04-07T23:13:35.404Z,11.00
2023-04-07T23:16:38.369Z,10.75
2023-04-07T23:19:42.748Z,10.40
2023-04-07T23:22:45.824Z,9.25
2023-04-07T23:25:49.738Z,8.40
2023-04-07T23:28:52.693Z,9.88
2023-04-07T23:31:56.036Z,8.68
2023-04-07T23:34:59.005Z,8.38
2023-04-07T23:38:02.521Z,8.48
2023-04-07T23:41:05.439Z,9.00
2023-04-07T23:44:08.911Z,7.47
2023-04-07T23:47:11.796Z,8.55
2023-04-07T23:50:15.032Z,7.80
2023-04-07T23:53:18.352Z,7.60
2023-04-07T23:56:21.720Z,8.57
2023-04-07T23:59:25.070Z,8.02
